sensor_id;sensor_type;location;lat;lon;timestamp;P1;durP1;ratioP1;P2;durP2;ratioP2
52106;SDS011;38105;52.968;5.974;2022-09-01T00:02:03;7.60;;;2.60;;
52106;SDS011;38105;52.968;5.974;2022-09-01T00:04:32;7.57;;;1.88;;
52106;SDS011;38105;52.968;5.974;2022-09-01T00:06:59;7.00;;;1.92;;
52106;SDS011;38105;52.968;5.974;2022-09-01T00:09:25;8.55;;;2.38;;
52106;SDS011;38105;52.968;5.974;2022-09-01T00:11:52;7.85;;;2.28;;
52106;SDS011;38105;52.968;5.974;2022-09-01T00:14:20;8.13;;;2.17;;
52106;SDS011;38105;52.968;5.974;2022-09-01T00:16:48;5.25;;;2.20;;
52106;SDS011;38105;52.968;5.974;2022-09-01T00:19:14;6.47;;;2.30;;
52106;SDS011;38105;52.968;5.974;2022-09-01T00:21:40;7.03;;;2.10;;
52106;SDS011;38105;52.968;5.974;2022-09-01T00:24:09;8.07;;;2.25;;
52106;SDS011;38105;52.968;5.974;2022-09-01T00:26:36;7.75;;;2.45;;
52106;SDS011;38105;52.968;5.974;2022-09-01T00:29:02;4.85;;;2.47;;
52106;SDS011;38105;52.968;5.974;2022-09-01T00:31:29;5.25;;;1.90;;
52106;SDS011;38105;52.968;5.974;2022-09-01T00:33:54;6.00;;;2.20;;
52106;SDS011;38105;52.968;5.974;2022-09-01T00:36:20;5.68;;;2.00;;
52106;SDS011;38105;52.968;5.974;2022-09-01T00:38:46;3.58;;;2.03;;
52106;SDS011;38105;52.968;5.974;2022-09-01T00:41:14;4.88;;;2.38;;
52106;SDS011;38105;52.968;5.974;2022-09-01T00:46:17;6.95;;;2.58;;
52106;SDS011;38105;52.968;5.974;2022-09-01T00:48:43;5.75;;;2.08;;
52106;SDS011;38105;52.968;5.974;2022-09-01T00:51:09;6.47;;;2.47;;
52106;SDS011;38105;52.968;5.974;2022-09-01T00:53:36;5.13;;;1.80;;
52106;SDS011;38105;52.968;5.974;2022-09-01T00:56:05;5.68;;;2.10;;
52106;SDS011;38105;52.968;5.974;2022-09-01T00:58:32;4.22;;;1.90;;
52106;SDS011;38105;52.968;5.974;2022-09-01T01:00:59;4.57;;;1.95;;
52106;SDS011;38105;52.968;5.974;2022-09-01T01:03:27;4.90;;;2.15;;
52106;SDS011;38105;52.968;5.974;2022-09-01T01:05:54;6.32;;;2.50;;
52106;SDS011;38105;52.968;5.974;2022-09-01T01:08:23;8.77;;;2.40;;
52106;SDS011;38105;52.968;5.974;2022-09-01T01:11:05;7.47;;;2.10;;
52106;SDS011;38105;52.968;5.974;2022-09-01T01:16:43;3.85;;;2.08;;
52106;SDS011;38105;52.968;5.974;2022-09-01T01:22:07;6.65;;;2.35;;
52106;SDS011;38105;52.968;5.974;2022-09-01T01:24:56;7.07;;;2.42;;
52106;SDS011;38105;52.968;5.974;2022-09-01T01:27:22;5.18;;;2.05;;
52106;SDS011;38105;52.968;5.974;2022-09-01T01:29:48;5.47;;;2.20;;
52106;SDS011;38105;52.968;5.974;2022-09-01T01:32:17;6.95;;;2.40;;
52106;SDS011;38105;52.968;5.974;2022-09-01T01:34:43;5.00;;;2.10;;
52106;SDS011;38105;52.968;5.974;2022-09-01T01:37:11;7.68;;;2.08;;
52106;SDS011;38105;52.968;5.974;2022-09-01T01:39:38;6.65;;;2.42;;
52106;SDS011;38105;52.968;5.974;2022-09-01T01:42:06;3.58;;;1.88;;
52106;SDS011;38105;52.968;5.974;2022-09-01T01:44:33;3.42;;;1.77;;
52106;SDS011;38105;52.968;5.974;2022-09-01T01:47:02;6.07;;;2.10;;
52106;SDS011;38105;52.968;5.974;2022-09-01T01:49:32;3.15;;;1.58;;
52106;SDS011;38105;52.968;5.974;2022-09-01T01:51:59;5.78;;;1.95;;
52106;SDS011;38105;52.968;5.974;2022-09-01T01:54:25;4.53;;;2.10;;
52106;SDS011;38105;52.968;5.974;2022-09-01T01:56:56;3.38;;;2.10;;
52106;SDS011;38105;52.968;5.974;2022-09-01T01:59:26;4.07;;;2.08;;
52106;SDS011;38105;52.968;5.974;2022-09-01T02:01:53;3.70;;;2.20;;
52106;SDS011;38105;52.968;5.974;2022-09-01T02:04:20;3.28;;;1.88;;
52106;SDS011;38105;52.968;5.974;2022-09-01T02:06:47;5.00;;;2.03;;
52106;SDS011;38105;52.968;5.974;2022-09-01T02:09:19;3.25;;;2.30;;
52106;SDS011;38105;52.968;5.974;2022-09-01T02:11:47;3.15;;;2.50;;
52106;SDS011;38105;52.968;5.974;2022-09-01T02:14:16;3.42;;;2.33;;
52106;SDS011;38105;52.968;5.974;2022-09-01T02:16:44;2.78;;;2.00;;
52106;SDS011;38105;52.968;5.974;2022-09-01T02:19:10;3.90;;;2.10;;
52106;SDS011;38105;52.968;5.974;2022-09-01T02:21:36;6.93;;;2.28;;
52106;SDS011;38105;52.968;5.974;2022-09-01T02:24:03;3.92;;;2.13;;
52106;SDS011;38105;52.968;5.974;2022-09-01T02:26:40;4.15;;;2.38;;
52106;SDS011;38105;52.968;5.974;2022-09-01T02:29:10;3.38;;;1.88;;
52106;SDS011;38105;52.968;5.974;2022-09-01T02:34:10;5.90;;;2.08;;
52106;SDS011;38105;52.968;5.974;2022-09-01T02:36:38;3.60;;;1.90;;
52106;SDS011;38105;52.968;5.974;2022-09-01T02:39:16;3.05;;;1.67;;
52106;SDS011;38105;52.968;5.974;2022-09-01T02:41:44;2.70;;;1.80;;
52106;SDS011;38105;52.968;5.974;2022-09-01T02:44:10;5.75;;;2.60;;
52106;SDS011;38105;52.968;5.974;2022-09-01T02:46:39;4.00;;;1.98;;
52106;SDS011;38105;52.968;5.974;2022-09-01T02:49:10;5.80;;;2.13;;
52106;SDS011;38105;52.968;5.974;2022-09-01T02:51:48;5.68;;;2.38;;
52106;SDS011;38105;52.968;5.974;2022-09-01T02:54:18;3.85;;;1.83;;
52106;SDS011;38105;52.968;5.974;2022-09-01T02:56:49;5.43;;;2.20;;
52106;SDS011;38105;52.968;5.974;2022-09-01T02:59:19;2.00;;;1.80;;
52106;SDS011;38105;52.968;5.974;2022-09-01T03:01:46;5.55;;;2.13;;
52106;SDS011;38105;52.968;5.974;2022-09-01T03:04:13;3.90;;;2.10;;
52106;SDS011;38105;52.968;5.974;2022-09-01T03:06:39;3.55;;;2.15;;
52106;SDS011;38105;52.968;5.974;2022-09-01T03:09:07;3.08;;;2.20;;
52106;SDS011;38105;52.968;5.974;2022-09-01T03:11:36;4.13;;;2.22;;
52106;SDS011;38105;52.968;5.974;2022-09-01T03:14:05;6.30;;;2.10;;
52106;SDS011;38105;52.968;5.974;2022-09-01T03:16:31;3.45;;;2.20;;
52106;SDS011;38105;52.968;5.974;2022-09-01T03:18:58;4.82;;;1.83;;
52106;SDS011;38105;52.968;5.974;2022-09-01T03:21:24;2.90;;;2.15;;
52106;SDS011;38105;52.968;5.974;2022-09-01T03:23:51;2.90;;;1.90;;
52106;SDS011;38105;52.968;5.974;2022-09-01T03:26:18;3.72;;;2.10;;
52106;SDS011;38105;52.968;5.974;2022-09-01T03:28:46;3.38;;;1.80;;
52106;SDS011;38105;52.968;5.974;2022-09-01T03:31:13;5.85;;;2.10;;
52106;SDS011;38105;52.968;5.974;2022-09-01T03:33:40;3.20;;;2.10;;
52106;SDS011;38105;52.968;5.974;2022-09-01T03:36:06;2.85;;;2.03;;
52106;SDS011;38105;52.968;5.974;2022-09-01T03:38:32;2.78;;;2.10;;
52106;SDS011;38105;52.968;5.974;2022-09-01T03:40:59;3.75;;;2.10;;
52106;SDS011;38105;52.968;5.974;2022-09-01T03:43:29;4.60;;;2.35;;
52106;SDS011;38105;52.968;5.974;2022-09-01T03:45:56;6.45;;;2.05;;
52106;SDS011;38105;52.968;5.974;2022-09-01T03:48:26;4.10;;;2.30;;
52106;SDS011;38105;52.968;5.974;2022-09-01T03:50:54;4.35;;;2.63;;
52106;SDS011;38105;52.968;5.974;2022-09-01T03:53:21;6.47;;;2.15;;
52106;SDS011;38105;52.968;5.974;2022-09-01T03:55:51;4.68;;;2.38;;
52106;SDS011;38105;52.968;5.974;2022-09-01T03:58:19;3.00;;;2.28;;
52106;SDS011;38105;52.968;5.974;2022-09-01T04:00:52;6.40;;;2.50;;
52106;SDS011;38105;52.968;5.974;2022-09-01T04:03:20;2.95;;;2.28;;
52106;SDS011;38105;52.968;5.974;2022-09-01T04:05:49;5.43;;;2.80;;
52106;SDS011;38105;52.968;5.974;2022-09-01T04:08:16;4.10;;;2.20;;
52106;SDS011;38105;52.968;5.974;2022-09-01T04:10:44;4.93;;;2.35;;
52106;SDS011;38105;52.968;5.974;2022-09-01T04:15:47;4.60;;;2.40;;
52106;SDS011;38105;52.968;5.974;2022-09-01T04:18:14;4.13;;;2.35;;
52106;SDS011;38105;52.968;5.974;2022-09-01T04:20:45;5.00;;;2.65;;
52106;SDS011;38105;52.968;5.974;2022-09-01T04:25:51;4.55;;;2.38;;
52106;SDS011;38105;52.968;5.974;2022-09-01T04:28:19;4.63;;;2.88;;
52106;SDS011;38105;52.968;5.974;2022-09-01T04:30:49;5.13;;;2.72;;
52106;SDS011;38105;52.968;5.974;2022-09-01T04:33:21;3.83;;;2.72;;
52106;SDS011;38105;52.968;5.974;2022-09-01T04:35:48;3.88;;;2.63;;
52106;SDS011;38105;52.968;5.974;2022-09-01T04:38:19;7.03;;;3.08;;
52106;SDS011;38105;52.968;5.974;2022-09-01T04:40:46;6.97;;;2.90;;
52106;SDS011;38105;52.968;5.974;2022-09-01T04:43:14;7.53;;;3.00;;
52106;SDS011;38105;52.968;5.974;2022-09-01T04:45:40;4.22;;;2.67;;
52106;SDS011;38105;52.968;5.974;2022-09-01T04:48:07;4.03;;;2.95;;
52106;SDS011;38105;52.968;5.974;2022-09-01T04:50:38;6.13;;;2.63;;
52106;SDS011;38105;52.968;5.974;2022-09-01T04:53:05;4.47;;;2.97;;
52106;SDS011;38105;52.968;5.974;2022-09-01T04:55:31;4.68;;;2.83;;
52106;SDS011;38105;52.968;5.974;2022-09-01T04:57:57;6.53;;;2.88;;
52106;SDS011;38105;52.968;5.974;2022-09-01T05:00:25;4.60;;;2.83;;
52106;SDS011;38105;52.968;5.974;2022-09-01T05:02:57;4.13;;;2.92;;
52106;SDS011;38105;52.968;5.974;2022-09-01T05:05:34;4.95;;;2.88;;
52106;SDS011;38105;52.968;5.974;2022-09-01T05:08:04;7.30;;;2.70;;
52106;SDS011;38105;52.968;5.974;2022-09-01T05:10:32;7.97;;;2.88;;
52106;SDS011;38105;52.968;5.974;2022-09-01T05:13:00;4.10;;;2.30;;
52106;SDS011;38105;52.968;5.974;2022-09-01T05:15:25;5.97;;;2.92;;
52106;SDS011;38105;52.968;5.974;2022-09-01T05:17:51;3.35;;;2.60;;
52106;SDS011;38105;52.968;5.974;2022-09-01T05:20:20;4.95;;;2.78;;
52106;SDS011;38105;52.968;5.974;2022-09-01T05:22:45;4.47;;;2.75;;
52106;SDS011;38105;52.968;5.974;2022-09-01T05:25:11;4.45;;;2.55;;
52106;SDS011;38105;52.968;5.974;2022-09-01T05:27:40;6.63;;;2.72;;
52106;SDS011;38105;52.968;5.974;2022-09-01T05:30:13;6.45;;;2.22;;
52106;SDS011;38105;52.968;5.974;2022-09-01T05:32:42;5.57;;;2.50;;
52106;SDS011;38105;52.968;5.974;2022-09-01T05:35:09;4.20;;;2.30;;
52106;SDS011;38105;52.968;5.974;2022-09-01T05:37:35;5.75;;;1.85;;
52106;SDS011;38105;52.968;5.974;2022-09-01T05:40:05;3.85;;;2.00;;
52106;SDS011;38105;52.968;5.974;2022-09-01T05:42:33;5.05;;;2.22;;
52106;SDS011;38105;52.968;5.974;2022-09-01T05:45:03;6.38;;;2.03;;
52106;SDS011;38105;52.968;5.974;2022-09-01T05:47:29;5.57;;;1.92;;
52106;SDS011;38105;52.968;5.974;2022-09-01T05:49:55;6.75;;;1.83;;
52106;SDS011;38105;52.968;5.974;2022-09-01T05:52:22;3.45;;;1.90;;
52106;SDS011;38105;52.968;5.974;2022-09-01T05:54:50;4.57;;;1.70;;
52106;SDS011;38105;52.968;5.974;2022-09-01T05:57:16;2.95;;;1.50;;
52106;SDS011;38105;52.968;5.974;2022-09-01T05:59:43;5.70;;;2.13;;
52106;SDS011;38105;52.968;5.974;2022-09-01T06:02:14;5.13;;;1.48;;
52106;SDS011;38105;52.968;5.974;2022-09-01T06:04:40;5.55;;;1.83;;
52106;SDS011;38105;52.968;5.974;2022-09-01T06:07:06;4.63;;;1.70;;
52106;SDS011;38105;52.968;5.974;2022-09-01T06:09:37;3.33;;;1.65;;
52106;SDS011;38105;52.968;5.974;2022-09-01T06:12:04;2.60;;;1.20;;
52106;SDS011;38105;52.968;5.974;2022-09-01T06:14:30;7.80;;;1.80;;
52106;SDS011;38105;52.968;5.974;2022-09-01T06:16:56;2.70;;;1.45;;
52106;SDS011;38105;52.968;5.974;2022-09-01T06:19:22;3.38;;;1.00;;
52106;SDS011;38105;52.968;5.974;2022-09-01T06:21:48;2.63;;;1.13;;
52106;SDS011;38105;52.968;5.974;2022-09-01T06:24:14;2.83;;;1.10;;
52106;SDS011;38105;52.968;5.974;2022-09-01T06:26:39;5.65;;;1.30;;
52106;SDS011;38105;52.968;5.974;2022-09-01T06:29:07;4.15;;;1.48;;
52106;SDS011;38105;52.968;5.974;2022-09-01T06:31:34;2.83;;;1.20;;
52106;SDS011;38105;52.968;5.974;2022-09-01T06:34:04;2.60;;;1.13;;
52106;SDS011;38105;52.968;5.974;2022-09-01T06:36:32;1.73;;;0.90;;
52106;SDS011;38105;52.968;5.974;2022-09-01T06:39:01;2.90;;;1.08;;
52106;SDS011;38105;52.968;5.974;2022-09-01T06:41:27;4.43;;;1.23;;
52106;SDS011;38105;52.968;5.974;2022-09-01T06:43:55;7.57;;;1.20;;
52106;SDS011;38105;52.968;5.974;2022-09-01T06:46:21;2.00;;;1.00;;
52106;SDS011;38105;52.968;5.974;2022-09-01T06:48:49;2.55;;;0.98;;
52106;SDS011;38105;52.968;5.974;2022-09-01T06:51:17;3.60;;;1.05;;
52106;SDS011;38105;52.968;5.974;2022-09-01T06:53:46;2.35;;;1.15;;
52106;SDS011;38105;52.968;5.974;2022-09-01T06:56:15;3.00;;;1.05;;
52106;SDS011;38105;52.968;5.974;2022-09-01T06:58:43;3.05;;;0.90;;
52106;SDS011;38105;52.968;5.974;2022-09-01T07:01:13;4.93;;;1.10;;
52106;SDS011;38105;52.968;5.974;2022-09-01T07:03:42;2.83;;;1.00;;
52106;SDS011;38105;52.968;5.974;2022-09-01T07:06:08;5.57;;;1.40;;
52106;SDS011;38105;52.968;5.974;2022-09-01T07:08:35;4.07;;;1.00;;
52106;SDS011;38105;52.968;5.974;2022-09-01T07:11:07;4.13;;;0.95;;
52106;SDS011;38105;52.968;5.974;2022-09-01T07:13:41;2.30;;;0.90;;
52106;SDS011;38105;52.968;5.974;2022-09-01T07:16:15;3.50;;;0.85;;
52106;SDS011;38105;52.968;5.974;2022-09-01T07:18:45;1.15;;;0.70;;
52106;SDS011;38105;52.968;5.974;2022-09-01T07:21:10;3.03;;;0.95;;
52106;SDS011;38105;52.968;5.974;2022-09-01T07:23:36;4.78;;;0.90;;
52106;SDS011;38105;52.968;5.974;2022-09-01T07:26:04;4.43;;;0.90;;
52106;SDS011;38105;52.968;5.974;2022-09-01T07:28:32;1.88;;;0.80;;
52106;SDS011;38105;52.968;5.974;2022-09-01T07:30:58;2.47;;;0.90;;
52106;SDS011;38105;52.968;5.974;2022-09-01T07:33:24;3.45;;;1.02;;
52106;SDS011;38105;52.968;5.974;2022-09-01T07:35:51;3.08;;;0.82;;
52106;SDS011;38105;52.968;5.974;2022-09-01T07:38:20;3.45;;;1.00;;
52106;SDS011;38105;52.968;5.974;2022-09-01T07:40:46;2.50;;;0.80;;
52106;SDS011;38105;52.968;5.974;2022-09-01T07:43:23;2.97;;;0.77;;
52106;SDS011;38105;52.968;5.974;2022-09-01T07:45:52;4.55;;;0.80;;
52106;SDS011;38105;52.968;5.974;2022-09-01T07:48:21;2.50;;;1.00;;
52106;SDS011;38105;52.968;5.974;2022-09-01T07:50:49;2.60;;;1.10;;
52106;SDS011;38105;52.968;5.974;2022-09-01T07:53:17;2.45;;;0.98;;
52106;SDS011;38105;52.968;5.974;2022-09-01T07:55:46;2.83;;;0.80;;
52106;SDS011;38105;52.968;5.974;2022-09-01T07:58:17;4.95;;;1.20;;
52106;SDS011;38105;52.968;5.974;2022-09-01T08:00:46;1.77;;;1.08;;
52106;SDS011;38105;52.968;5.974;2022-09-01T08:03:13;4.90;;;0.88;;
52106;SDS011;38105;52.968;5.974;2022-09-01T08:05:38;4.00;;;1.10;;
52106;SDS011;38105;52.968;5.974;2022-09-01T08:08:05;1.88;;;0.98;;
52106;SDS011;38105;52.968;5.974;2022-09-01T08:10:31;5.90;;;1.20;;
52106;SDS011;38105;52.968;5.974;2022-09-01T08:12:57;4.20;;;0.80;;
52106;SDS011;38105;52.968;5.974;2022-09-01T08:15:23;2.20;;;0.80;;
52106;SDS011;38105;52.968;5.974;2022-09-01T08:17:50;1.95;;;0.60;;
52106;SDS011;38105;52.968;5.974;2022-09-01T08:20:15;2.38;;;0.80;;
52106;SDS011;38105;52.968;5.974;2022-09-01T08:22:41;3.42;;;0.80;;
52106;SDS011;38105;52.968;5.974;2022-09-01T08:25:08;6.55;;;0.75;;
52106;SDS011;38105;52.968;5.974;2022-09-01T08:27:35;1.50;;;0.68;;
52106;SDS011;38105;52.968;5.974;2022-09-01T08:30:06;5.30;;;1.00;;
52106;SDS011;38105;52.968;5.974;2022-09-01T08:35:01;6.45;;;1.00;;
52106;SDS011;38105;52.968;5.974;2022-09-01T08:37:28;2.42;;;0.70;;
52106;SDS011;38105;52.968;5.974;2022-09-01T08:39:55;4.53;;;1.02;;
52106;SDS011;38105;52.968;5.974;2022-09-01T08:42:34;4.13;;;0.93;;
52106;SDS011;38105;52.968;5.974;2022-09-01T08:45:24;2.65;;;0.90;;
52106;SDS011;38105;52.968;5.974;2022-09-01T08:47:58;3.97;;;0.77;;
52106;SDS011;38105;52.968;5.974;2022-09-01T08:50:33;5.28;;;0.90;;
52106;SDS011;38105;52.968;5.974;2022-09-01T08:53:04;5.22;;;1.02;;
52106;SDS011;38105;52.968;5.974;2022-09-01T08:55:46;6.10;;;1.23;;
52106;SDS011;38105;52.968;5.974;2022-09-01T08:58:18;2.08;;;0.73;;
52106;SDS011;38105;52.968;5.974;2022-09-01T09:00:46;5.13;;;0.95;;
52106;SDS011;38105;52.968;5.974;2022-09-01T09:06:02;4.55;;;0.70;;
52106;SDS011;38105;52.968;5.974;2022-09-01T09:08:54;4.13;;;0.85;;
52106;SDS011;38105;52.968;5.974;2022-09-01T09:14:35;3.33;;;0.88;;
52106;SDS011;38105;52.968;5.974;2022-09-01T09:17:09;2.28;;;0.50;;
52106;SDS011;38105;52.968;5.974;2022-09-01T09:19:41;2.25;;;0.65;;
52106;SDS011;38105;52.968;5.974;2022-09-01T09:22:15;3.83;;;0.47;;
52106;SDS011;38105;52.968;5.974;2022-09-01T09:27:19;2.92;;;0.70;;
52106;SDS011;38105;52.968;5.974;2022-09-01T09:30:08;4.05;;;0.70;;
52106;SDS011;38105;52.968;5.974;2022-09-01T09:32:55;7.38;;;0.90;;
52106;SDS011;38105;52.968;5.974;2022-09-01T09:35:44;2.42;;;0.77;;
52106;SDS011;38105;52.968;5.974;2022-09-01T09:43:31;3.42;;;0.80;;
52106;SDS011;38105;52.968;5.974;2022-09-01T09:46:19;3.17;;;0.52;;
52106;SDS011;38105;52.968;5.974;2022-09-01T09:51:40;2.38;;;0.60;;
52106;SDS011;38105;52.968;5.974;2022-09-01T09:54:20;2.22;;;0.50;;
52106;SDS011;38105;52.968;5.974;2022-09-01T09:57:04;1.98;;;0.57;;
52106;SDS011;38105;52.968;5.974;2022-09-01T09:59:46;2.67;;;0.45;;
52106;SDS011;38105;52.968;5.974;2022-09-01T10:04:52;2.80;;;0.50;;
52106;SDS011;38105;52.968;5.974;2022-09-01T10:07:32;2.38;;;0.50;;
52106;SDS011;38105;52.968;5.974;2022-09-01T10:10:24;2.45;;;0.50;;
52106;SDS011;38105;52.968;5.974;2022-09-01T10:13:12;3.80;;;0.40;;
52106;SDS011;38105;52.968;5.974;2022-09-01T10:15:48;3.30;;;0.40;;
52106;SDS011;38105;52.968;5.974;2022-09-01T10:18:17;3.90;;;0.60;;
52106;SDS011;38105;52.968;5.974;2022-09-01T10:20:48;3.08;;;0.52;;
52106;SDS011;38105;52.968;5.974;2022-09-01T10:23:19;3.15;;;0.50;;
52106;SDS011;38105;52.968;5.974;2022-09-01T10:25:45;3.88;;;0.65;;
52106;SDS011;38105;52.968;5.974;2022-09-01T10:28:15;3.58;;;0.80;;
52106;SDS011;38105;52.968;5.974;2022-09-01T10:30:45;0.75;;;0.40;;
52106;SDS011;38105;52.968;5.974;2022-09-01T10:33:13;4.38;;;0.60;;
52106;SDS011;38105;52.968;5.974;2022-09-01T10:35:41;4.05;;;0.40;;
52106;SDS011;38105;52.968;5.974;2022-09-01T10:38:22;1.88;;;0.40;;
52106;SDS011;38105;52.968;5.974;2022-09-01T10:40:51;1.15;;;0.40;;
52106;SDS011;38105;52.968;5.974;2022-09-01T10:43:45;1.95;;;0.40;;
52106;SDS011;38105;52.968;5.974;2022-09-01T10:48:52;1.73;;;0.50;;
52106;SDS011;38105;52.968;5.974;2022-09-01T10:53:52;4.80;;;0.50;;
52106;SDS011;38105;52.968;5.974;2022-09-01T10:56:22;2.22;;;0.40;;
52106;SDS011;38105;52.968;5.974;2022-09-01T11:04:21;1.65;;;0.40;;
52106;SDS011;38105;52.968;5.974;2022-09-01T11:12:45;1.45;;;0.45;;
52106;SDS011;38105;52.968;5.974;2022-09-01T11:15:32;0.75;;;0.32;;
52106;SDS011;38105;52.968;5.974;2022-09-01T11:18:01;0.52;;;0.30;;
52106;SDS011;38105;52.968;5.974;2022-09-01T11:20:35;2.63;;;0.40;;
52106;SDS011;38105;52.968;5.974;2022-09-01T11:25:36;0.75;;;0.40;;
52106;SDS011;38105;52.968;5.974;2022-09-01T11:31:30;2.35;;;0.43;;
52106;SDS011;38105;52.968;5.974;2022-09-01T11:33:58;3.22;;;0.40;;
52106;SDS011;38105;52.968;5.974;2022-09-01T11:36:46;2.63;;;0.50;;
52106;SDS011;38105;52.968;5.974;2022-09-01T11:44:17;1.02;;;0.30;;
52106;SDS011;38105;52.968;5.974;2022-09-01T11:46:48;1.38;;;0.30;;
52106;SDS011;38105;52.968;5.974;2022-09-01T11:49:25;1.92;;;0.45;;
52106;SDS011;38105;52.968;5.974;2022-09-01T11:52:00;4.72;;;0.40;;
52106;SDS011;38105;52.968;5.974;2022-09-01T11:54:28;2.65;;;0.50;;
52106;SDS011;38105;52.968;5.974;2022-09-01T11:57:15;1.10;;;0.40;;
52106;SDS011;38105;52.968;5.974;2022-09-01T11:59:58;3.05;;;0.52;;
52106;SDS011;38105;52.968;5.974;2022-09-01T12:02:30;0.40;;;0.30;;
52106;SDS011;38105;52.968;5.974;2022-09-01T12:04:58;0.90;;;0.30;;
52106;SDS011;38105;52.968;5.974;2022-09-01T12:07:27;2.33;;;0.50;;
52106;SDS011;38105;52.968;5.974;2022-09-01T12:10:02;1.30;;;0.30;;
52106;SDS011;38105;52.968;5.974;2022-09-01T12:12:30;1.48;;;0.40;;
52106;SDS011;38105;52.968;5.974;2022-09-01T12:15:04;2.85;;;0.32;;
52106;SDS011;38105;52.968;5.974;2022-09-01T12:17:40;1.73;;;0.50;;
52106;SDS011;38105;52.968;5.974;2022-09-01T12:20:26;3.88;;;0.50;;
52106;SDS011;38105;52.968;5.974;2022-09-01T12:22:53;2.03;;;0.40;;
52106;SDS011;38105;52.968;5.974;2022-09-01T12:25:21;3.03;;;0.30;;
52106;SDS011;38105;52.968;5.974;2022-09-01T12:27:49;2.75;;;0.50;;
52106;SDS011;38105;52.968;5.974;2022-09-01T12:30:16;2.53;;;0.32;;
52106;SDS011;38105;52.968;5.974;2022-09-01T12:32:42;0.98;;;0.30;;
52106;SDS011;38105;52.968;5.974;2022-09-01T12:35:41;3.03;;;0.38;;
52106;SDS011;38105;52.968;5.974;2022-09-01T12:38:20;2.35;;;0.30;;
52106;SDS011;38105;52.968;5.974;2022-09-01T12:40:53;2.67;;;0.22;;
52106;SDS011;38105;52.968;5.974;2022-09-01T12:43:31;0.90;;;0.30;;
52106;SDS011;38105;52.968;5.974;2022-09-01T12:46:03;5.03;;;0.40;;
52106;SDS011;38105;52.968;5.974;2022-09-01T12:48:34;3.00;;;0.40;;
52106;SDS011;38105;52.968;5.974;2022-09-01T12:51:21;6.25;;;0.60;;
52106;SDS011;38105;52.968;5.974;2022-09-01T12:53:52;6.45;;;0.45;;
52106;SDS011;38105;52.968;5.974;2022-09-01T12:56:34;1.27;;;0.40;;
52106;SDS011;38105;52.968;5.974;2022-09-01T13:01:39;0.93;;;0.32;;
52106;SDS011;38105;52.968;5.974;2022-09-01T13:04:10;2.25;;;0.22;;
52106;SDS011;38105;52.968;5.974;2022-09-01T13:06:44;2.45;;;0.40;;
52106;SDS011;38105;52.968;5.974;2022-09-01T13:09:10;3.70;;;0.43;;
52106;SDS011;38105;52.968;5.974;2022-09-01T13:11:36;2.20;;;0.30;;
52106;SDS011;38105;52.968;5.974;2022-09-01T13:14:02;4.22;;;0.52;;
52106;SDS011;38105;52.968;5.974;2022-09-01T13:16:28;1.50;;;0.50;;
52106;SDS011;38105;52.968;5.974;2022-09-01T13:18:54;0.70;;;0.20;;
52106;SDS011;38105;52.968;5.974;2022-09-01T13:21:19;0.93;;;0.30;;
52106;SDS011;38105;52.968;5.974;2022-09-01T13:23:45;3.35;;;0.40;;
52106;SDS011;38105;52.968;5.974;2022-09-01T13:26:12;4.15;;;0.95;;
52106;SDS011;38105;52.968;5.974;2022-09-01T13:28:37;0.98;;;0.30;;
52106;SDS011;38105;52.968;5.974;2022-09-01T13:31:03;2.72;;;0.50;;
52106;SDS011;38105;52.968;5.974;2022-09-01T13:33:29;3.05;;;0.50;;
52106;SDS011;38105;52.968;5.974;2022-09-01T13:35:57;1.27;;;0.30;;
52106;SDS011;38105;52.968;5.974;2022-09-01T13:38:23;2.58;;;0.38;;
52106;SDS011;38105;52.968;5.974;2022-09-01T13:40:49;2.08;;;0.50;;
52106;SDS011;38105;52.968;5.974;2022-09-01T13:43:16;1.15;;;0.28;;
52106;SDS011;38105;52.968;5.974;2022-09-01T13:45:44;1.73;;;0.30;;
52106;SDS011;38105;52.968;5.974;2022-09-01T13:48:10;1.40;;;0.40;;
52106;SDS011;38105;52.968;5.974;2022-09-01T13:50:36;2.65;;;0.50;;
52106;SDS011;38105;52.968;5.974;2022-09-01T13:53:02;1.00;;;0.30;;
52106;SDS011;38105;52.968;5.974;2022-09-01T13:55:30;2.50;;;0.40;;
52106;SDS011;38105;52.968;5.974;2022-09-01T13:57:58;5.53;;;0.63;;
52106;SDS011;38105;52.968;5.974;2022-09-01T14:00:28;2.47;;;0.30;;
52106;SDS011;38105;52.968;5.974;2022-09-01T14:02:57;6.95;;;0.77;;
52106;SDS011;38105;52.968;5.974;2022-09-01T14:05:27;2.67;;;0.60;;
52106;SDS011;38105;52.968;5.974;2022-09-01T14:07:55;1.10;;;0.30;;
52106;SDS011;38105;52.968;5.974;2022-09-01T14:10:22;0.98;;;0.20;;
52106;SDS011;38105;52.968;5.974;2022-09-01T14:12:49;0.93;;;0.30;;
52106;SDS011;38105;52.968;5.974;2022-09-01T14:15:16;1.15;;;0.40;;
52106;SDS011;38105;52.968;5.974;2022-09-01T14:17:43;6.45;;;0.40;;
52106;SDS011;38105;52.968;5.974;2022-09-01T14:20:12;2.75;;;0.30;;
52106;SDS011;38105;52.968;5.974;2022-09-01T14:22:40;1.10;;;0.28;;
52106;SDS011;38105;52.968;5.974;2022-09-01T14:25:06;1.80;;;0.50;;
52106;SDS011;38105;52.968;5.974;2022-09-01T14:27:33;2.78;;;0.40;;
52106;SDS011;38105;52.968;5.974;2022-09-01T14:29:59;2.25;;;0.30;;
52106;SDS011;38105;52.968;5.974;2022-09-01T14:32:25;2.55;;;0.38;;
52106;SDS011;38105;52.968;5.974;2022-09-01T14:34:55;4.10;;;0.40;;
52106;SDS011;38105;52.968;5.974;2022-09-01T14:37:21;1.45;;;0.30;;
52106;SDS011;38105;52.968;5.974;2022-09-01T14:39:48;2.20;;;0.45;;
52106;SDS011;38105;52.968;5.974;2022-09-01T14:42:14;1.85;;;0.30;;
52106;SDS011;38105;52.968;5.974;2022-09-01T14:44:40;3.13;;;0.20;;
52106;SDS011;38105;52.968;5.974;2022-09-01T14:47:07;1.95;;;0.32;;
52106;SDS011;38105;52.968;5.974;2022-09-01T14:49:33;0.85;;;0.30;;
52106;SDS011;38105;52.968;5.974;2022-09-01T14:52:01;2.85;;;0.50;;
52106;SDS011;38105;52.968;5.974;2022-09-01T14:54:29;3.60;;;0.30;;
52106;SDS011;38105;52.968;5.974;2022-09-01T14:56:55;2.58;;;0.30;;
52106;SDS011;38105;52.968;5.974;2022-09-01T14:59:21;3.03;;;0.40;;
52106;SDS011;38105;52.968;5.974;2022-09-01T15:01:46;2.63;;;0.40;;
52106;SDS011;38105;52.968;5.974;2022-09-01T15:04:12;2.15;;;0.40;;
52106;SDS011;38105;52.968;5.974;2022-09-01T15:06:38;3.78;;;0.40;;
52106;SDS011;38105;52.968;5.974;2022-09-01T15:09:04;1.75;;;0.30;;
52106;SDS011;38105;52.968;5.974;2022-09-01T15:11:29;1.67;;;0.30;;
52106;SDS011;38105;52.968;5.974;2022-09-01T15:13:55;1.95;;;0.32;;
52106;SDS011;38105;52.968;5.974;2022-09-01T15:16:22;2.97;;;0.32;;
52106;SDS011;38105;52.968;5.974;2022-09-01T15:18:49;1.73;;;0.38;;
52106;SDS011;38105;52.968;5.974;2022-09-01T15:21:22;3.90;;;0.30;;
52106;SDS011;38105;52.968;5.974;2022-09-01T15:23:50;2.03;;;0.30;;
52106;SDS011;38105;52.968;5.974;2022-09-01T15:26:18;1.95;;;0.22;;
52106;SDS011;38105;52.968;5.974;2022-09-01T15:28:44;3.85;;;0.63;;
52106;SDS011;38105;52.968;5.974;2022-09-01T15:31:12;3.67;;;0.50;;
52106;SDS011;38105;52.968;5.974;2022-09-01T15:33:40;2.83;;;0.32;;
52106;SDS011;38105;52.968;5.974;2022-09-01T15:36:06;1.70;;;0.30;;
52106;SDS011;38105;52.968;5.974;2022-09-01T15:38:33;3.70;;;0.30;;
52106;SDS011;38105;52.968;5.974;2022-09-01T15:40:59;3.83;;;0.50;;
52106;SDS011;38105;52.968;5.974;2022-09-01T15:43:29;3.53;;;0.30;;
52106;SDS011;38105;52.968;5.974;2022-09-01T15:45:56;5.07;;;0.30;;
52106;SDS011;38105;52.968;5.974;2022-09-01T15:48:22;3.00;;;0.40;;
52106;SDS011;38105;52.968;5.974;2022-09-01T15:50:49;2.03;;;0.45;;
52106;SDS011;38105;52.968;5.974;2022-09-01T15:53:15;1.63;;;0.40;;
52106;SDS011;38105;52.968;5.974;2022-09-01T15:55:42;3.50;;;0.50;;
52106;SDS011;38105;52.968;5.974;2022-09-01T15:58:10;2.97;;;0.30;;
52106;SDS011;38105;52.968;5.974;2022-09-01T16:00:39;2.22;;;0.30;;
52106;SDS011;38105;52.968;5.974;2022-09-01T16:03:05;5.05;;;0.30;;
52106;SDS011;38105;52.968;5.974;2022-09-01T16:05:32;4.93;;;0.40;;
52106;SDS011;38105;52.968;5.974;2022-09-01T16:08:00;0.98;;;0.30;;
52106;SDS011;38105;52.968;5.974;2022-09-01T16:10:27;1.65;;;0.40;;